Brownton, Minnesota
Current Conditions -  °F | °C
As of 2:53 PM on Tuesday 27 Jan 2015 (Local Time) from KHCD Reporting Station
Overcast Overcast  
Wind Chill: 29°   Ceiling: 1400
Heat Index: 35°   Visibility: 10mi
Dew Point: 31°   Wind: 8mph
Humidity: 83%   Direction: 130°SE
Pressure: 30.14"   Gusts: NA
Location:  44.73°N, 94.35°W
Report Text: KHCD 272053Z AUTO 13007KT 10SM OVC014 02/M01 A3014 RMK AO2 T00191007
Loading
Personal Weather Stations






























Interactive Weather Map New forecast layout! Learn more

10-Day Weather Forecast

Advertisements
Track Severe Weather on mobile